Time;durP1;ratioP1;P1;durP2;ratioP2;P2;SDS_P1;SDS_P2;PMS_P1;PMS_P2;Temp;Humidity;BMP_temperature;BMP_pressure;BME280_temperature;BME280_humidity;BME280_pressure;Samples;Min_cycle;Max_cycle;Signal;HPM_P1;HPM_P2
2022/11/12 00:01:33;;;;;;;17.20;9.20;;;10.10;99.90;;;;;;5072502;28;20942;-48
2022/11/12 00:04:18;;;;;;;10.77;7.63;;;10.40;99.90;;;;;;5072523;28;20433;-48
2022/11/12 00:07:04;;;;;;;16.30;10.70;;;10.50;99.90;;;;;;5072243;28;20437;-48
2022/11/12 00:09:49;;;;;;;13.30;10.13;;;10.20;99.90;;;;;;5071932;28;20572;-48
2022/11/12 00:12:34;;;;;;;14.70;9.10;;;10.10;99.90;;;;;;5072092;28;20868;-48
2022/11/12 00:15:20;;;;;;;9.77;7.70;;;9.30;99.90;;;;;;5072247;28;20429;-48
2022/11/12 00:18:07;;;;;;;10.70;7.63;;;10.00;99.90;;;;;;5072131;28;20404;-48
2022/11/12 00:20:52;;;;;;;9.50;7.60;;;10.10;99.90;;;;;;5071790;28;20479;-48
2022/11/12 00:23:37;;;;;;;10.80;7.80;;;10.00;99.90;;;;;;5071797;28;20922;-49
2022/11/12 00:26:22;;;;;;;7.33;6.50;;;9.80;99.90;;;;;;5072031;28;20564;-49
2022/11/12 00:29:09;;;;;;;9.27;6.10;;;9.80;99.90;;;;;;5071912;28;20425;-49
2022/11/12 00:31:55;;;;;;;8.80;5.80;;;9.60;99.90;;;;;;5071947;28;20429;-48
2022/11/12 00:34:40;;;;;;;11.33;7.90;;;9.80;99.90;;;;;;5072597;28;20889;-49
2022/11/12 00:37:25;;;;;;;11.60;7.70;;;9.60;99.90;;;;;;5071827;28;20425;-49
2022/11/12 00:40:11;;;;;;;10.53;7.10;;;9.40;99.90;;;;;;5071355;28;20483;-49
2022/11/12 00:42:57;;;;;;;10.23;6.80;;;9.80;99.90;;;;;;5072065;28;20945;-49
2022/11/12 00:45:43;;;;;;;14.87;7.00;;;10.00;99.90;;;;;;5072593;28;20491;-49
2022/11/12 00:48:29;;;;;;;8.70;6.67;;;10.20;99.90;;;;;;5071500;28;20507;-49
2022/11/12 00:51:14;;;;;;;8.40;7.13;;;9.50;99.90;;;;;;5073841;28;20445;-50
2022/11/12 00:54:00;;;;;;;9.33;5.70;;;9.90;99.90;;;;;;5075782;28;20478;-48
2022/11/12 00:56:46;;;;;;;7.10;5.23;;;10.00;99.90;;;;;;5075927;28;20555;-47
2022/11/12 00:59:31;;;;;;;12.40;6.00;;;10.20;99.90;;;;;;5075094;28;20602;-48
2022/11/12 01:02:18;;;;;;;9.23;6.27;;;9.80;99.90;;;;;;5075636;28;20555;-47
2022/11/12 01:05:06;;;;;;;18.63;11.57;;;9.50;99.90;;;;;;5075221;28;20901;-48
2022/11/12 01:07:51;;;;;;;11.70;6.30;;;9.70;99.90;;;;;;5076006;28;20414;-48
2022/11/12 01:10:36;;;;;;;9.77;6.33;;;10.30;99.90;;;;;;5074981;28;20440;-48
2022/11/12 01:13:21;;;;;;;7.90;6.13;;;9.90;99.90;;;;;;5075572;28;20418;-48
2022/11/12 01:16:07;;;;;;;8.17;5.07;;;9.90;99.90;;;;;;5075253;28;20429;-48
2022/11/12 01:18:54;;;;;;;7.30;5.13;;;9.80;99.90;;;;;;5074795;28;20806;-48
2022/11/12 01:21:43;;;;;;;6.93;4.77;;;9.80;99.90;;;;;;5075049;28;20421;-47
2022/11/12 01:24:28;;;;;;;6.90;5.17;;;9.90;99.90;;;;;;5075487;28;20424;-47
2022/11/12 01:27:14;;;;;;;6.73;4.93;;;10.10;99.90;;;;;;5075428;28;20421;-49
2022/11/12 01:29:59;;;;;;;6.60;5.47;;;10.10;99.90;;;;;;5074773;28;20519;-49
2022/11/12 01:32:45;;;;;;;9.00;5.47;;;9.70;99.90;;;;;;5074994;28;20396;-48
2022/11/12 01:35:30;;;;;;;13.10;5.70;;;9.50;99.90;;;;;;5074795;28;20425;-48
2022/11/12 01:38:16;;;;;;;7.97;5.23;;;10.20;99.90;;;;;;5074986;28;20436;-49
2022/11/12 01:41:02;;;;;;;7.63;5.30;;;9.50;99.90;;;;;;5074656;28;20477;-48
2022/11/12 01:43:47;;;;;;;8.40;5.97;;;9.50;99.90;;;;;;5075092;28;20433;-48
2022/11/12 01:46:34;;;;;;;11.13;5.43;;;9.80;99.90;;;;;;5074846;28;20790;-48
2022/11/12 01:49:26;;;;;;;11.00;4.70;;;9.50;99.90;;;;;;5074722;28;20475;-49
2022/11/12 01:52:17;;;;;;;8.40;5.63;;;9.40;99.90;;;;;;5074665;28;20436;-48
2022/11/12 01:55:09;;;;;;;9.00;5.63;;;9.70;99.90;;;;;;5074716;28;20516;-48
2022/11/12 01:57:59;;;;;;;8.50;5.20;;;9.50;99.90;;;;;;5074944;28;20468;-48
2022/11/12 02:00:45;;;;;;;6.33;4.90;;;9.40;99.90;;;;;;5073858;28;20451;-47
2022/11/12 02:03:31;;;;;;;8.30;5.50;;;9.80;99.90;;;;;;5074225;28;21068;-48
2022/11/12 02:06:19;;;;;;;7.30;4.80;;;9.70;99.90;;;;;;5074475;28;20949;-48
2022/11/12 02:09:05;;;;;;;12.40;4.67;;;9.50;99.90;;;;;;5073974;28;20429;-48
2022/11/12 02:11:51;;;;;;;7.83;6.23;;;9.80;99.90;;;;;;5074247;28;20563;-48
2022/11/12 02:14:36;;;;;;;6.33;5.50;;;10.10;99.90;;;;;;5074300;28;20905;-48
2022/11/12 02:17:21;;;;;;;8.47;6.27;;;10.10;99.90;;;;;;5074108;28;20418;-48
2022/11/12 02:20:09;;;;;;;7.90;4.90;;;9.80;99.90;;;;;;5073614;28;20519;-49
2022/11/12 02:22:56;;;;;;;7.50;5.80;;;9.60;99.90;;;;;;5074239;28;20528;-49
2022/11/12 02:25:41;;;;;;;8.17;4.70;;;10.10;99.90;;;;;;5074101;28;20426;-49
2022/11/12 02:28:27;;;;;;;8.50;5.07;;;9.80;99.90;;;;;;5073674;28;20428;-48
2022/11/12 02:31:13;;;;;;;8.70;5.20;;;9.40;99.90;;;;;;5073586;28;20461;-49
2022/11/12 02:33:58;;;;;;;7.07;4.00;;;9.50;99.90;;;;;;5074096;28;20425;-48
2022/11/12 02:36:43;;;;;;;7.30;5.60;;;9.50;99.90;;;;;;5074037;28;20887;-48
2022/11/12 02:39:30;;;;;;;5.83;3.90;;;9.80;99.90;;;;;;5073466;28;20540;-49
2022/11/12 02:42:15;;;;;;;5.03;4.20;;;9.50;99.90;;;;;;5073986;28;20421;-49
2022/11/12 02:45:01;;;;;;;7.67;4.27;;;9.80;99.90;;;;;;5073561;28;20479;-49
2022/11/12 02:47:46;;;;;;;7.13;4.40;;;9.80;99.90;;;;;;5073678;28;20794;-48
2022/11/12 02:50:32;;;;;;;9.80;6.00;;;9.70;99.90;;;;;;5073464;28;20449;-48
2022/11/12 02:53:17;;;;;;;6.20;4.37;;;10.00;99.90;;;;;;5073443;28;20471;-48
2022/11/12 02:56:04;;;;;;;7.07;4.90;;;9.40;99.90;;;;;;5073588;28;20423;-48
2022/11/12 02:58:50;;;;;;;6.03;4.63;;;9.40;99.90;;;;;;5073130;28;20421;-49
2022/11/12 03:01:35;;;;;;;5.60;4.10;;;9.30;99.90;;;;;;5073726;28;20476;-48
2022/11/12 03:04:21;;;;;;;7.13;4.87;;;9.90;99.90;;;;;;5073169;28;20800;-49
2022/11/12 03:07:06;;;;;;;6.23;4.57;;;9.50;99.90;;;;;;5073416;28;20420;-49
2022/11/12 03:09:52;;;;;;;6.93;5.70;;;9.10;99.90;;;;;;5072648;28;20449;-49
2022/11/12 03:12:38;;;;;;;6.40;4.90;;;9.10;99.90;;;;;;5073982;28;20425;-48
2022/11/12 03:15:24;;;;;;;6.53;4.80;;;9.20;99.90;;;;;;5072225;28;20937;-48
2022/11/12 03:18:10;;;;;;;7.00;5.10;;;9.30;99.90;;;;;;5072968;28;20509;-49
2022/11/12 03:20:55;;;;;;;7.50;4.70;;;9.60;99.90;;;;;;5072982;28;20714;-48
2022/11/12 03:23:40;;;;;;;5.30;4.00;;;9.30;99.90;;;;;;5073156;28;20471;-49
2022/11/12 03:26:26;;;;;;;10.97;6.47;;;9.10;99.90;;;;;;5073048;28;20951;-48
2022/11/12 03:29:12;;;;;;;8.03;5.40;;;9.10;99.90;;;;;;5072586;28;20784;-49
2022/11/12 03:31:58;;;;;;;6.50;4.90;;;9.40;99.90;;;;;;5072566;28;20416;-48
2022/11/12 03:34:43;;;;;;;12.73;4.70;;;9.40;99.90;;;;;;5072808;28;20793;-49
2022/11/12 03:37:28;;;;;;;8.77;5.17;;;8.50;99.90;;;;;;5072817;28;20543;-48
2022/11/12 03:40:14;;;;;;;7.07;4.73;;;9.20;99.90;;;;;;5072175;28;20959;-49
2022/11/12 03:42:59;;;;;;;6.40;4.93;;;9.30;99.90;;;;;;5072759;28;20949;-49
2022/11/12 03:45:46;;;;;;;6.93;4.73;;;9.00;99.90;;;;;;5072733;28;20491;-48
2022/11/12 03:48:32;;;;;;;6.20;4.43;;;8.50;99.90;;;;;;5072330;28;20424;-48
2022/11/12 03:51:17;;;;;;;6.67;4.47;;;8.60;99.90;;;;;;5072658;28;20957;-49
2022/11/12 03:54:03;;;;;;;6.43;4.70;;;8.90;99.90;;;;;;5073033;28;20407;-49
2022/11/12 03:56:48;;;;;;;6.50;3.80;;;9.30;99.90;;;;;;5072276;28;20441;-49
2022/11/12 03:59:34;;;;;;;7.77;4.40;;;9.30;99.90;;;;;;5072021;28;20445;-48
2022/11/12 04:02:21;;;;;;;7.07;4.60;;;8.90;99.90;;;;;;5072248;28;20481;-48
2022/11/12 04:11:19;;;;;;;8.67;5.40;;;9.00;99.90;;;;;;5072501;28;20844;-49
2022/11/12 04:14:03;;;;;;;9.33;5.60;;;9.20;99.90;;;;;;5072443;28;20445;-49
2022/11/12 04:22:56;;;;;;;6.63;4.67;;;8.20;99.90;;;;;;5072323;28;20420;-49
2022/11/12 04:30:14;;;;;;;10.47;5.93;;;8.70;99.90;;;;;;5076117;28;20415;-48
2022/11/12 04:31:49;;;;;;;6.97;5.13;;;8.80;99.90;;;;;;5076158;28;20436;-49
2022/11/12 04:34:34;;;;;;;11.17;5.93;;;8.60;99.90;;;;;;5075960;28;20417;-47
2022/11/12 04:37:21;;;;;;;11.00;5.90;;;8.60;99.90;;;;;;5076720;28;20429;-49
2022/11/12 04:46:13;;;;;;;12.10;5.97;;;8.80;99.90;;;;;;5076679;28;20494;-48
2022/11/12 04:48:58;;;;;;;7.30;5.97;;;8.60;99.90;;;;;;5075647;28;20417;-48
2022/11/12 04:54:53;;;;;;;12.30;6.17;;;8.60;99.90;;;;;;5072778;28;20512;-48
2022/11/12 04:57:38;;;;;;;12.30;5.60;;;8.10;99.90;;;;;;5075853;28;20428;-48
2022/11/12 05:00:24;;;;;;;9.33;5.30;;;8.50;99.90;;;;;;5075130;28;20503;-48
2022/11/12 05:03:10;;;;;;;10.10;5.43;;;8.50;99.90;;;;;;5075712;28;20429;-48
2022/11/12 05:06:01;;;;;;;10.60;6.60;;;7.90;99.90;;;;;;5075784;28;20849;-48
2022/11/12 05:08:46;;;;;;;12.50;5.50;;;8.40;99.90;;;;;;5074910;28;20403;-48
2022/11/12 05:11:33;;;;;;;9.60;5.53;;;7.80;99.90;;;;;;5075468;28;20444;-48
2022/11/12 05:14:19;;;;;;;9.40;5.23;;;8.40;99.90;;;;;;5075563;28;20432;-48
2022/11/12 05:17:05;;;;;;;7.37;5.90;;;8.40;99.90;;;;;;5074961;28;20431;-48
2022/11/12 05:19:50;;;;;;;7.50;5.77;;;8.20;99.90;;;;;;5074948;28;20448;-48
2022/11/12 05:22:35;;;;;;;8.50;5.47;;;8.30;99.90;;;;;;5074979;28;20481;-48
2022/11/12 05:25:20;;;;;;;10.23;6.00;;;8.30;99.90;;;;;;5075114;28;20895;-47
2022/11/12 05:28:07;;;;;;;7.33;5.63;;;8.40;99.90;;;;;;5075389;28;20552;-48
2022/11/12 05:30:53;;;;;;;9.83;4.80;;;8.20;99.90;;;;;;5075293;28;20548;-48
2022/11/12 05:33:38;;;;;;;7.60;5.40;;;8.10;99.90;;;;;;5075071;28;20470;-48
2022/11/12 05:36:23;;;;;;;9.63;6.30;;;7.70;99.90;;;;;;5074980;28;20515;-48
2022/11/12 05:39:08;;;;;;;11.07;5.77;;;8.30;99.90;;;;;;5074360;28;20514;-48
2022/11/12 05:41:54;;;;;;;12.70;6.80;;;8.40;99.90;;;;;;5074662;28;20449;-48
2022/11/12 05:44:40;;;;;;;13.63;7.40;;;8.10;99.90;;;;;;5075091;28;20426;-48
2022/11/12 05:47:26;;;;;;;11.60;7.40;;;7.70;99.90;;;;;;5075020;28;20473;-49
2022/11/12 05:50:11;;;;;;;11.80;6.93;;;8.20;99.90;;;;;;5074412;28;20542;-48
2022/11/12 05:52:56;;;;;;;11.97;6.80;;;7.50;99.90;;;;;;5074582;28;20417;-48
2022/11/12 05:55:42;;;;;;;8.87;5.80;;;7.50;99.90;;;;;;5074507;28;20420;-48
2022/11/12 05:58:28;;;;;;;9.80;6.07;;;8.10;99.90;;;;;;5074382;28;20433;-48
2022/11/12 06:01:14;;;;;;;9.93;5.60;;;8.10;99.90;;;;;;5074518;28;20480;-48
2022/11/12 06:04:00;;;;;;;10.83;5.60;;;8.00;99.90;;;;;;5074264;28;20922;-48
2022/11/12 06:06:45;;;;;;;9.23;6.30;;;7.90;99.90;;;;;;5074478;28;20428;-47
2022/11/12 06:09:30;;;;;;;9.93;6.60;;;8.20;99.90;;;;;;5074616;28;20554;-47
2022/11/12 06:12:16;;;;;;;12.67;6.80;;;8.00;99.90;;;;;;5074292;28;20399;-48
2022/11/12 06:15:01;;;;;;;13.57;7.70;;;8.10;99.90;;;;;;5074128;28;20459;-48
2022/11/12 06:17:48;;;;;;;13.40;6.40;;;8.10;99.90;;;;;;5074411;28;20424;-48
2022/11/12 06:20:34;;;;;;;12.70;6.80;;;8.10;99.90;;;;;;5073748;28;20456;-48
2022/11/12 06:23:19;;;;;;;9.60;6.90;;;7.90;99.90;;;;;;5074109;28;20417;-48
2022/11/12 06:26:04;;;;;;;14.07;7.07;;;7.80;99.90;;;;;;5075015;28;20395;-48
2022/11/12 06:28:50;;;;;;;11.90;6.40;;;7.70;99.90;;;;;;5074032;28;20552;-48
2022/11/12 06:31:35;;;;;;;11.40;6.23;;;8.00;99.90;;;;;;5074217;28;20784;-47
2022/11/12 06:34:22;;;;;;;9.63;6.70;;;7.40;99.90;;;;;;5074401;28;20927;-48
2022/11/12 06:37:07;;;;;;;17.80;8.10;;;7.80;99.90;;;;;;5074514;28;20777;-48
2022/11/12 06:39:53;;;;;;;11.27;6.80;;;7.80;99.90;;;;;;5073241;28;20539;-48
2022/11/12 06:42:39;;;;;;;7.83;5.90;;;7.60;99.90;;;;;;5073471;28;21003;-48
2022/11/12 06:45:24;;;;;;;7.60;5.77;;;7.60;99.90;;;;;;5073796;28;20574;-47
2022/11/12 06:48:09;;;;;;;20.13;7.03;;;7.90;99.90;;;;;;5073576;28;20428;-48
2022/11/12 06:50:57;;;;;;;10.90;6.57;;;7.80;99.90;;;;;;5073670;28;20584;-48
2022/11/12 06:53:42;;;;;;;16.10;7.70;;;7.70;99.90;;;;;;5073707;28;20421;-48
2022/11/12 06:56:28;;;;;;;11.47;7.50;;;7.80;99.90;;;;;;5073221;28;20959;-48
2022/11/12 06:59:13;;;;;;;11.83;7.70;;;8.00;99.90;;;;;;5072775;28;20425;-47
2022/11/12 07:01:58;;;;;;;11.43;6.80;;;7.90;99.90;;;;;;5073182;28;20475;-47
2022/11/12 07:04:44;;;;;;;9.63;6.77;;;7.70;99.90;;;;;;5073242;28;20428;-49
2022/11/12 07:07:30;;;;;;;11.53;6.60;;;7.80;99.90;;;;;;5072908;28;20428;-48
2022/11/12 07:10:16;;;;;;;8.80;5.90;;;8.00;99.90;;;;;;5072800;28;20422;-48
2022/11/12 07:13:01;;;;;;;9.17;6.37;;;8.10;99.90;;;;;;5072983;28;20392;-48
2022/11/12 07:15:46;;;;;;;11.50;7.13;;;8.00;99.90;;;;;;5072926;28;20564;-48
2022/11/12 07:18:33;;;;;;;11.30;7.30;;;7.40;99.90;;;;;;5072766;28;20421;-48
2022/11/12 07:21:20;;;;;;;9.13;6.50;;;8.40;99.90;;;;;;5072764;28;20537;-48
2022/11/12 07:24:07;;;;;;;11.87;7.90;;;8.10;99.90;;;;;;5072693;28;20431;-48
2022/11/12 07:26:53;;;;;;;18.53;8.20;;;8.30;99.90;;;;;;5073024;28;20738;-49
2022/11/12 07:29:38;;;;;;;14.57;8.10;;;8.40;99.90;;;;;;5072403;28;20450;-48
2022/11/12 07:32:24;;;;;;;15.47;8.50;;;8.80;99.90;;;;;;5072675;28;20924;-47
2022/11/12 07:35:09;;;;;;;11.57;7.67;;;8.50;99.90;;;;;;5072303;28;20790;-48
2022/11/12 07:37:55;;;;;;;16.53;8.10;;;8.30;99.90;;;;;;5072874;28;20428;-48
2022/11/12 07:40:41;;;;;;;11.40;7.63;;;8.80;99.90;;;;;;5072004;28;20447;-47
2022/11/12 07:43:27;;;;;;;15.73;8.23;;;9.10;99.90;;;;;;5072652;28;20428;-47
2022/11/12 07:46:14;;;;;;;13.10;7.60;;;9.30;99.90;;;;;;5072634;28;20416;-48
2022/11/12 07:49:00;;;;;;;16.80;8.00;;;9.20;99.90;;;;;;5072135;28;20538;-48
2022/11/12 07:51:45;;;;;;;11.73;7.87;;;9.40;99.90;;;;;;5072461;28;20417;-48
2022/11/12 07:54:31;;;;;;;11.67;7.60;;;9.40;99.90;;;;;;5072191;28;20417;-48
2022/11/12 07:57:18;;;;;;;14.53;8.20;;;9.20;99.90;;;;;;5071996;28;20904;-48
2022/11/12 08:00:04;;;;;;;15.10;9.20;;;9.50;99.90;;;;;;5071586;28;20436;-48
2022/11/12 08:02:49;;;;;;;10.77;7.67;;;9.60;99.90;;;;;;5071986;28;20451;-48
2022/11/12 08:05:35;;;;;;;19.80;10.33;;;9.50;99.90;;;;;;5071959;28;20523;-48
2022/11/12 08:08:20;;;;;;;12.27;7.87;;;9.70;99.90;;;;;;5072123;28;20425;-49
2022/11/12 08:11:05;;;;;;;10.70;7.63;;;9.60;99.90;;;;;;5072206;28;20460;-48
2022/11/12 08:13:52;;;;;;;11.27;8.67;;;9.60;99.90;;;;;;5072151;28;20519;-49
2022/11/12 08:16:37;;;;;;;20.97;10.33;;;9.60;99.90;;;;;;5072047;28;20541;-48
2022/11/12 08:19:23;;;;;;;16.97;9.20;;;9.50;99.90;;;;;;5071790;28;20429;-48
2022/11/12 08:22:08;;;;;;;14.03;9.73;;;9.60;99.90;;;;;;5072000;28;20469;-49
2022/11/12 08:24:54;;;;;;;13.27;8.10;;;9.70;99.90;;;;;;5072132;28;20440;-48
2022/11/12 08:27:39;;;;;;;15.20;10.13;;;10.00;99.90;;;;;;5071483;28;20607;-48
2022/11/12 08:30:26;;;;;;;11.77;8.47;;;9.60;99.90;;;;;;5071399;28;20426;-48
2022/11/12 08:33:11;;;;;;;9.70;8.60;;;9.60;99.90;;;;;;5072118;28;20392;-48
2022/11/12 08:35:57;;;;;;;14.43;9.70;;;9.90;99.90;;;;;;5071586;28;20429;-48
2022/11/12 08:38:44;;;;;;;15.40;8.80;;;9.90;99.90;;;;;;5071094;28;20428;-48
2022/11/12 08:41:30;;;;;;;12.67;10.23;;;10.00;99.90;;;;;;5071630;28;21031;-49
2022/11/12 08:44:15;;;;;;;15.30;9.40;;;10.20;99.90;;;;;;5071994;28;20977;-47
2022/11/12 08:47:02;;;;;;;13.73;9.70;;;9.90;99.90;;;;;;5071625;28;20468;-48
2022/11/12 08:49:47;;;;;;;12.90;9.30;;;9.70;99.90;;;;;;5071638;28;20506;-48
2022/11/12 08:52:33;;;;;;;16.43;10.87;;;10.20;99.90;;;;;;5071861;28;20420;-48
2022/11/12 08:55:18;;;;;;;19.93;10.77;;;10.70;99.90;;;;;;5071367;28;20504;-48
2022/11/12 08:58:04;;;;;;;23.53;11.73;;;9.90;99.90;;;;;;5070977;28;20433;-49
2022/11/12 09:00:50;;;;;;;16.27;11.33;;;10.20;99.90;;;;;;5071338;28;20530;-48
2022/11/12 09:03:37;;;;;;;22.70;12.73;;;10.40;99.90;;;;;;5071282;28;20841;-48
2022/11/12 09:06:22;;;;;;;17.80;11.60;;;10.20;99.90;;;;;;5071366;28;20433;-48
2022/11/12 09:09:08;;;;;;;17.13;12.13;;;10.40;99.90;;;;;;5071010;28;20475;-48
2022/11/12 09:11:53;;;;;;;16.87;12.20;;;10.50;99.90;;;;;;5072735;28;20760;-48
2022/11/12 09:14:39;;;;;;;19.30;14.53;;;10.60;99.90;;;;;;5074755;28;20559;-48
2022/11/12 09:17:24;;;;;;;16.83;11.93;;;10.70;99.90;;;;;;5075115;28;20512;-48
2022/11/12 09:20:11;;;;;;;17.10;11.40;;;10.80;99.90;;;;;;5074669;28;20448;-48
2022/11/12 09:22:59;;;;;;;15.23;11.90;;;10.60;99.90;;;;;;5074696;28;20958;-47
2022/11/12 09:25:44;;;;;;;16.60;11.53;;;11.30;99.90;;;;;;5075364;28;20449;-48
2022/11/12 09:28:29;;;;;;;15.23;11.83;;;10.50;99.90;;;;;;5074443;28;20425;-48
2022/11/12 09:31:14;;;;;;;19.30;13.37;;;11.10;99.90;;;;;;5074501;28;20462;-47
2022/11/12 09:34:00;;;;;;;19.83;14.33;;;11.20;99.90;;;;;;5074534;28;20529;-47
2022/11/12 09:36:47;;;;;;;16.63;12.00;;;11.10;99.90;;;;;;5074445;28;20519;-47
2022/11/12 09:39:32;;;;;;;18.10;12.13;;;10.50;99.90;;;;;;5073644;28;20921;-48
2022/11/12 09:42:20;;;;;;;22.93;12.00;;;10.90;99.90;;;;;;5074434;28;20476;-48
2022/11/12 09:45:12;;;;;;;17.50;11.60;;;11.10;99.90;;;;;;5074543;28;20489;-48
2022/11/12 09:48:02;;;;;;;16.83;10.33;;;10.90;99.90;;;;;;5074479;28;20430;-48
2022/11/12 09:50:56;;;;;;;19.77;13.73;;;10.50;99.90;;;;;;5074520;28;20458;-48
2022/11/12 09:53:49;;;;;;;18.03;11.50;;;11.40;99.90;;;;;;5074773;28;20565;-48
2022/11/12 09:56:34;;;;;;;18.73;13.50;;;11.30;99.90;;;;;;5074027;28;20557;-48
2022/11/12 09:59:21;;;;;;;15.03;9.87;;;11.40;99.90;;;;;;5073911;28;20429;-47
2022/11/12 10:02:23;;;;;;;16.20;8.93;;;11.70;99.90;;;;;;5074083;28;20469;-49
2022/11/12 10:05:30;;;;;;;13.67;8.33;;;11.60;99.90;;;;;;5073823;28;20565;-50
2022/11/12 10:08:34;;;;;;;14.53;8.13;;;11.40;99.90;;;;;;5074046;28;20426;-47
2022/11/12 10:18:16;;;;;;;15.67;8.80;;;11.30;99.90;;;;;;5073909;28;20462;-48
2022/11/12 10:21:08;;;;;;;16.57;8.90;;;11.50;99.90;;;;;;5073762;28;20443;-48
2022/11/12 10:23:54;;;;;;;14.70;9.57;;;11.40;99.90;;;;;;5072774;28;20811;-47
2022/11/12 10:26:40;;;;;;;19.53;9.17;;;11.90;99.90;;;;;;5073906;28;20434;-48
2022/11/12 10:29:36;;;;;;;14.33;10.10;;;11.30;99.90;;;;;;5073545;28;20427;-48
2022/11/12 10:32:21;;;;;;;20.67;9.67;;;11.70;99.90;;;;;;5072734;28;20485;-48
2022/11/12 10:35:07;;;;;;;18.00;10.30;;;11.60;99.90;;;;;;5073629;28;20427;-49
2022/11/12 10:37:58;;;;;;;15.37;11.23;;;12.10;99.90;;;;;;5073669;28;20562;-48
2022/11/12 10:40:44;;;;;;;19.37;11.17;;;11.70;99.90;;;;;;5073344;28;20471;-48
2022/11/12 10:43:30;;;;;;;19.57;11.40;;;12.00;99.90;;;;;;5073080;28;20461;-47
2022/11/12 10:46:21;;;;;;;15.93;9.97;;;11.90;99.90;;;;;;5073310;28;20936;-47
2022/11/12 10:49:22;;;;;;;12.93;8.83;;;12.10;99.90;;;;;;5073042;28;20557;-48
2022/11/12 10:52:21;;;;;;;13.10;8.83;;;12.10;99.90;;;;;;5073110;28;20442;-47
2022/11/12 10:55:16;;;;;;;15.30;8.77;;;12.00;99.90;;;;;;5073175;28;20947;-47
2022/11/12 10:58:18;;;;;;;15.23;9.73;;;12.10;99.90;;;;;;5072623;28;21011;-47
2022/11/12 11:01:06;;;;;;;14.20;9.03;;;12.30;99.90;;;;;;5072795;28;20452;-47
2022/11/12 11:03:56;;;;;;;16.47;8.40;;;12.40;99.90;;;;;;5072502;28;20495;-48
2022/11/12 11:06:42;;;;;;;16.83;10.00;;;12.70;99.90;;;;;;5072748;28;20431;-47
2022/11/12 11:09:27;;;;;;;24.67;16.50;;;12.50;99.90;;;;;;5072052;28;20768;-46
2022/11/12 11:12:23;;;;;;;14.60;10.87;;;12.70;99.90;;;;;;5072851;28;20493;-47
2022/11/12 11:15:20;;;;;;;15.43;10.97;;;12.60;99.90;;;;;;5072620;28;20428;-45
2022/11/12 11:18:05;;;;;;;15.53;11.80;;;12.70;99.90;;;;;;5072365;28;20900;-47
2022/11/12 11:21:02;;;;;;;14.83;10.87;;;12.60;99.90;;;;;;5072911;28;20448;-49
2022/11/12 11:23:55;;;;;;;15.47;11.70;;;12.60;99.90;;;;;;5072210;28;21003;-46
2022/11/12 11:26:54;;;;;;;13.00;9.90;;;12.80;99.90;;;;;;5072600;28;20440;-46
2022/11/12 11:29:50;;;;;;;18.97;12.97;;;12.70;99.90;;;;;;5072204;28;20471;-48
2022/11/12 11:32:54;;;;;;;17.87;12.20;;;13.00;99.90;;;;;;5072466;28;20462;-48
2022/11/12 11:35:52;;;;;;;14.70;10.20;;;12.90;99.90;;;;;;5071400;28;20428;-47
2022/11/12 11:38:52;;;;;;;19.10;11.10;;;12.70;99.90;;;;;;5071412;28;20496;-48
2022/11/12 11:41:52;;;;;;;19.03;11.63;;;12.80;99.90;;;;;;5072020;28;20966;-48
2022/11/12 11:44:46;;;;;;;19.17;12.37;;;12.80;99.90;;;;;;5072107;28;20422;-49
2022/11/12 11:47:40;;;;;;;17.93;10.33;;;13.10;99.90;;;;;;5072182;28;20439;-48
2022/11/12 11:50:27;;;;;;;16.50;10.40;;;12.80;99.90;;;;;;5071344;28;20451;-50
2022/11/12 11:53:23;;;;;;;20.37;11.70;;;13.30;99.90;;;;;;5071867;28;20424;-48
2022/11/12 11:56:18;;;;;;;16.50;10.50;;;12.70;99.90;;;;;;5071930;28;20441;-48
2022/11/12 11:59:23;;;;;;;16.67;11.30;;;13.20;99.90;;;;;;5071304;28;20654;-48
2022/11/12 12:02:37;;;;;;;14.13;8.90;;;13.10;99.90;;;;;;5071971;28;20536;-47
2022/11/12 12:05:34;;;;;;;13.13;9.33;;;12.90;99.90;;;;;;5072013;28;20627;-47
2022/11/12 12:08:26;;;;;;;14.10;9.33;;;12.80;99.90;;;;;;5072056;28;20431;-46
2022/11/12 12:11:20;;;;;;;12.53;8.63;;;12.90;99.90;;;;;;5071716;28;20590;-47
2022/11/12 12:14:21;;;;;;;16.23;9.53;;;13.00;99.90;;;;;;5071491;28;20423;-47
2022/11/12 12:17:18;;;;;;;12.63;9.53;;;12.90;99.90;;;;;;5071418;28;20426;-46
2022/11/12 12:20:16;;;;;;;11.80;8.10;;;13.40;99.90;;;;;;5071183;28;20475;-46
2022/11/12 12:23:06;;;;;;;14.67;10.93;;;12.80;99.90;;;;;;5070989;28;20470;-46
2022/11/12 12:25:54;;;;;;;16.20;10.03;;;12.60;99.90;;;;;;5071107;28;20482;-47
2022/11/12 12:28:46;;;;;;;16.77;10.87;;;13.40;99.90;;;;;;5070380;28;20783;-47
2022/11/12 12:31:36;;;;;;;13.90;9.00;;;13.20;99.90;;;;;;5071311;28;20535;-46
2022/11/12 12:34:26;;;;;;;14.50;8.30;;;13.40;99.90;;;;;;5071540;28;20439;-46
2022/11/12 12:37:21;;;;;;;10.97;7.63;;;12.60;99.90;;;;;;5071812;28;20431;-46
2022/11/12 12:40:17;;;;;;;13.20;8.23;;;13.00;99.90;;;;;;5070638;28;20868;-46
2022/11/12 12:43:08;;;;;;;20.53;8.70;;;13.00;99.90;;;;;;5071234;28;20518;-47
2022/11/12 12:45:57;;;;;;;14.80;9.30;;;12.60;99.90;;;;;;5071040;28;20807;-47
2022/11/12 12:48:45;;;;;;;13.50;8.10;;;13.10;99.90;;;;;;5075158;28;20451;-46
2022/11/12 12:51:33;;;;;;;16.57;9.53;;;13.20;99.90;;;;;;5074840;28;20448;-46
2022/11/12 12:54:54;;;;;;;20.70;9.73;;;13.40;99.90;;;;;;5075000;28;20654;-47
2022/11/12 12:57:40;;;;;;;16.00;9.40;;;12.80;99.90;;;;;;5075047;28;20435;-46
2022/11/12 13:00:29;;;;;;;15.63;9.20;;;13.40;99.90;;;;;;5075071;28;20461;-46
2022/11/12 13:03:52;;;;;;;13.97;8.70;;;12.30;99.90;;;;;;5074779;28;20885;-47
2022/11/12 13:06:40;;;;;;;14.73;9.17;;;13.00;99.90;;;;;;5074671;28;20780;-47
2022/11/12 13:09:27;;;;;;;11.70;7.57;;;12.90;99.90;;;;;;5074607;28;20441;-47
2022/11/12 13:12:24;;;;;;;21.13;10.97;;;12.60;99.90;;;;;;5074816;28;20459;-48
2022/11/12 13:15:15;;;;;;;24.37;11.70;;;13.20;99.90;;;;;;5074186;28;20480;-48
2022/11/12 13:18:00;;;;;;;14.03;8.87;;;12.80;99.90;;;;;;5074844;28;20429;-47
2022/11/12 13:21:08;;;;;;;15.97;8.73;;;12.70;99.90;;;;;;5074367;28;20458;-47
2022/11/12 13:24:10;;;;;;;23.20;9.43;;;12.70;99.90;;;;;;5074377;28;20468;-47
2022/11/12 13:26:57;;;;;;;16.23;10.23;;;13.10;99.90;;;;;;5074437;28;20565;-47
2022/11/12 13:29:45;;;;;;;11.53;9.33;;;12.90;99.90;;;;;;5074060;28;20448;-47
2022/11/12 13:32:34;;;;;;;15.70;9.43;;;12.70;99.90;;;;;;5073924;28;20431;-47
2022/11/12 13:35:28;;;;;;;11.53;8.50;;;12.80;99.90;;;;;;5074587;28;20439;-47
2022/11/12 13:38:15;;;;;;;14.90;10.20;;;12.90;99.90;;;;;;5073769;28;20427;-47
2022/11/12 13:41:11;;;;;;;13.10;8.97;;;12.70;99.90;;;;;;5074477;28;20479;-47
2022/11/12 13:43:56;;;;;;;15.00;10.23;;;13.30;99.90;;;;;;5073934;28;21020;-47
2022/11/12 13:46:44;;;;;;;16.70;11.00;;;12.90;99.90;;;;;;5074248;28;20440;-47
2022/11/12 13:49:30;;;;;;;14.07;10.37;;;12.70;99.90;;;;;;5073684;28;20521;-47
2022/11/12 13:52:18;;;;;;;15.00;10.10;;;13.00;99.90;;;;;;5073665;28;20432;-47
2022/11/12 13:55:07;;;;;;;14.80;9.60;;;13.30;99.90;;;;;;5073949;28;20428;-46
2022/11/12 13:57:53;;;;;;;12.33;9.33;;;12.80;99.90;;;;;;5072619;28;20442;-47
2022/11/12 14:00:39;;;;;;;14.70;10.60;;;12.90;99.90;;;;;;5073604;28;20451;-48
2022/11/12 14:03:28;;;;;;;53.57;42.03;;;12.70;99.90;;;;;;5073424;28;20606;-49
2022/11/12 14:06:17;;;;;;;20.23;12.47;;;12.30;99.90;;;;;;5073901;28;20803;-46
2022/11/12 14:09:28;;;;;;;15.93;11.00;;;13.30;99.90;;;;;;5073728;28;21078;-47
2022/11/12 14:12:44;;;;;;;15.53;10.30;;;12.70;99.90;;;;;;5073683;28;20936;-46
2022/11/12 14:15:50;;;;;;;24.70;11.03;;;12.50;99.90;;;;;;5073755;28;20892;-48
2022/11/12 14:18:47;;;;;;;19.03;11.50;;;12.60;99.90;;;;;;5073147;28;20473;-48
2022/11/12 14:21:32;;;;;;;26.40;12.33;;;13.10;99.90;;;;;;5073663;28;20433;-47
2022/11/12 14:24:18;;;;;;;21.03;10.93;;;12.80;99.90;;;;;;5073398;28;20499;-48
2022/11/12 14:27:03;;;;;;;14.57;9.37;;;12.10;99.90;;;;;;5073270;28;20424;-48
2022/11/12 14:30:11;;;;;;;23.53;10.83;;;13.00;99.90;;;;;;5072961;28;20451;-48
2022/11/12 14:32:59;;;;;;;22.03;12.13;;;12.60;99.90;;;;;;5072808;28;20489;-47
2022/11/12 14:35:45;;;;;;;15.27;10.60;;;12.50;99.90;;;;;;5073588;28;20431;-47
2022/11/12 14:38:32;;;;;;;21.10;14.17;;;12.50;99.90;;;;;;5072517;28;20435;-47
2022/11/12 14:41:21;;;;;;;18.63;11.47;;;12.60;99.90;;;;;;5072305;28;20467;-48
2022/11/12 14:44:06;;;;;;;34.67;25.90;;;12.80;99.90;;;;;;5072663;28;20482;-48
2022/11/12 14:46:55;;;;;;;32.20;26.17;;;12.70;99.90;;;;;;5073245;28;20826;-47
2022/11/12 14:49:43;;;;;;;27.23;18.77;;;12.80;99.90;;;;;;5073037;28;20421;-47
2022/11/12 14:52:32;;;;;;;36.20;26.50;;;12.60;99.90;;;;;;5073105;28;20523;-47
2022/11/12 14:55:20;;;;;;;20.70;14.23;;;12.00;99.90;;;;;;5072515;28;20597;-47
2022/11/12 14:58:06;;;;;;;26.43;12.60;;;12.70;99.90;;;;;;5072871;28;20796;-47
2022/11/12 15:00:53;;;;;;;23.10;12.43;;;12.40;99.90;;;;;;5073003;28;20526;-46
2022/11/12 15:03:40;;;;;;;18.07;12.23;;;12.60;99.90;;;;;;5072518;28;20444;-47